Time;durP1;ratioP1;P1;durP2;ratioP2;P2;SDS_P1;SDS_P2;PMS_P1;PMS_P2;Temp;Humidity;BMP_temperature;BMP_pressure;BME280_temperature;BME280_humidity;BME280_pressure;Samples;Min_cycle;Max_cycle;Signal;HPM_P1;HPM_P2
2022/08/29 00:02:10;;;;;;;8.45;2.97;;;15.60;99.90;;;;;;6228449;22;20069;-87
2022/08/29 00:04:37;;;;;;;7.10;3.42;;;15.60;99.90;;;;;;6256144;22;20038;-87
2022/08/29 00:07:03;;;;;;;6.18;3.20;;;15.60;99.90;;;;;;6229405;22;20311;-86
2022/08/29 00:09:28;;;;;;;6.60;3.28;;;15.60;99.90;;;;;;6281806;22;20114;-86
2022/08/29 00:11:54;;;;;;;7.68;3.40;;;15.60;99.90;;;;;;6230928;22;20134;-86
2022/08/29 00:14:20;;;;;;;10.00;3.53;;;15.60;99.90;;;;;;6282883;22;20012;-86
2022/08/29 00:16:46;;;;;;;6.10;3.67;;;15.60;99.90;;;;;;6256396;22;20012;-86
2022/08/29 00:19:12;;;;;;;7.35;3.45;;;15.60;99.90;;;;;;6231325;22;20050;-85
2022/08/29 00:21:38;;;;;;;7.38;3.42;;;15.60;99.90;;;;;;6253905;22;20019;-85
2022/08/29 00:24:04;;;;;;;5.50;2.83;;;15.60;99.90;;;;;;6229528;22;20015;-85
2022/08/29 00:26:30;;;;;;;8.82;4.00;;;15.60;99.90;;;;;;6233411;22;20012;-84
2022/08/29 00:28:56;;;;;;;7.75;4.07;;;15.60;99.90;;;;;;6233996;22;20019;-85
2022/08/29 00:31:21;;;;;;;9.75;4.00;;;15.60;99.90;;;;;;6256626;22;20390;-85
2022/08/29 00:33:47;;;;;;;8.25;3.85;;;15.60;99.90;;;;;;6252502;22;20098;-85
2022/08/29 00:36:13;;;;;;;8.93;3.80;;;15.50;99.90;;;;;;6226376;22;20014;-85
2022/08/29 00:38:38;;;;;;;8.05;3.85;;;15.60;99.90;;;;;;6277522;22;20016;-85
2022/08/29 00:41:05;;;;;;;6.65;3.50;;;15.60;99.90;;;;;;6226957;22;20012;-85
2022/08/29 00:43:34;;;;;;;6.97;3.60;;;15.60;99.90;;;;;;6252498;22;20011;-85
2022/08/29 00:46:08;;;;;;;8.20;3.95;;;15.60;99.90;;;;;;6252253;22;20011;-86
2022/08/29 00:48:37;;;;;;;8.43;4.05;;;15.60;99.90;;;;;;6278232;22;20472;-85
2022/08/29 00:51:06;;;;;;;11.40;4.25;;;15.60;99.90;;;;;;6252897;22;20046;-85
2022/08/29 00:53:42;;;;;;;8.88;3.90;;;15.60;99.90;;;;;;6278685;22;20007;-86
2022/08/29 00:56:10;;;;;;;8.95;3.72;;;15.60;99.90;;;;;;6278665;22;20012;-85
2022/08/29 00:58:45;;;;;;;6.68;3.47;;;15.60;99.90;;;;;;6253338;22;20047;-85
2022/08/29 01:01:11;;;;;;;9.48;3.95;;;15.60;99.90;;;;;;6278768;22;20012;-85
2022/08/29 01:03:37;;;;;;;10.65;4.15;;;15.60;99.90;;;;;;6226673;22;20007;-85
2022/08/29 01:06:05;;;;;;;7.40;3.50;;;15.60;99.90;;;;;;6252713;22;20039;-85
2022/08/29 01:08:31;;;;;;;10.70;3.83;;;15.60;99.90;;;;;;6226309;22;20011;-85
2022/08/29 01:13:45;;;;;;;9.18;3.50;;;15.70;99.90;;;;;;6277578;22;20047;-86
2022/08/29 01:16:13;;;;;;;6.60;3.80;;;15.70;99.90;;;;;;6277790;22;20011;-85
2022/08/29 01:18:42;;;;;;;11.60;3.78;;;15.70;99.90;;;;;;6253159;22;20077;-85
2022/08/29 01:21:12;;;;;;;8.95;4.15;;;15.70;99.90;;;;;;6278151;22;20441;-86
2022/08/29 01:24:08;;;;;;;9.38;3.90;;;15.70;99.90;;;;;;6252227;22;20061;-85
2022/08/29 01:26:34;;;;;;;7.05;3.83;;;15.70;99.90;;;;;;6252781;22;20513;-85
2022/08/29 01:28:59;;;;;;;8.15;3.97;;;15.70;99.90;;;;;;6226756;22;20046;-86
2022/08/29 01:31:34;;;;;;;9.85;4.03;;;15.70;99.90;;;;;;6253201;22;20368;-85
2022/08/29 01:34:00;;;;;;;8.85;4.25;;;15.70;99.90;;;;;;6278106;22;20012;-86
2022/08/29 01:36:31;;;;;;;9.65;3.63;;;15.70;99.90;;;;;;6227193;22;20081;-85
2022/08/29 01:38:58;;;;;;;9.48;4.07;;;15.70;99.90;;;;;;6252861;22;20087;-86
2022/08/29 01:41:25;;;;;;;6.70;3.80;;;15.70;99.90;;;;;;6253765;22;20464;-86
2022/08/29 01:43:54;;;;;;;6.40;3.45;;;15.60;99.90;;;;;;6280050;22;20345;-85
2022/08/29 01:46:23;;;;;;;7.85;3.88;;;15.60;99.90;;;;;;6254526;22;20019;-85
2022/08/29 01:48:49;;;;;;;6.75;3.85;;;15.60;99.90;;;;;;6253078;22;20046;-85
2022/08/29 01:51:16;;;;;;;8.25;3.75;;;15.60;99.90;;;;;;6253575;22;20015;-85
2022/08/29 01:53:43;;;;;;;6.82;3.53;;;15.60;99.90;;;;;;6243498;22;20035;-85
2022/08/29 01:56:20;;;;;;;8.52;3.97;;;15.60;99.90;;;;;;6276707;22;20016;-85
2022/08/29 01:58:47;;;;;;;10.20;3.55;;;15.60;99.90;;;;;;6254537;22;20038;-86
2022/08/29 02:01:16;;;;;;;8.32;4.00;;;15.60;99.90;;;;;;6278283;22;20090;-85
2022/08/29 02:03:42;;;;;;;10.35;4.45;;;15.70;99.90;;;;;;6253513;22;20453;-86
2022/08/29 02:06:09;;;;;;;7.85;3.80;;;15.70;99.90;;;;;;6253040;22;20016;-86
2022/08/29 02:08:37;;;;;;;8.40;3.63;;;15.70;99.90;;;;;;6228450;22;20039;-85
2022/08/29 02:11:03;;;;;;;7.65;3.67;;;15.70;99.90;;;;;;6277375;22;20007;-86
2022/08/29 02:13:29;;;;;;;10.02;3.88;;;15.60;99.90;;;;;;6251908;22;20039;-86
2022/08/29 02:15:55;;;;;;;5.78;3.78;;;15.70;99.90;;;;;;6201637;22;20015;-85
2022/08/29 02:18:20;;;;;;;9.18;3.80;;;15.60;99.90;;;;;;6202019;22;20090;-85
2022/08/29 02:20:46;;;;;;;9.55;4.25;;;15.60;99.90;;;;;;6227294;22;20070;-86
2022/08/29 02:23:12;;;;;;;9.88;3.58;;;15.60;99.90;;;;;;6252087;22;20468;-85
2022/08/29 02:25:41;;;;;;;7.05;3.95;;;15.60;99.90;;;;;;6251356;22;20348;-85
2022/08/29 02:28:14;;;;;;;7.53;4.13;;;15.60;99.90;;;;;;6277747;22;20015;-86
2022/08/29 02:30:43;;;;;;;8.30;4.55;;;15.60;99.90;;;;;;6253304;22;20054;-85
2022/08/29 02:33:09;;;;;;;7.65;4.03;;;15.60;99.90;;;;;;6277522;22;20007;-85
2022/08/29 02:35:35;;;;;;;11.13;4.60;;;15.60;99.90;;;;;;6225910;22;20019;-85
2022/08/29 02:38:02;;;;;;;7.45;4.15;;;15.60;99.90;;;;;;6252173;22;20022;-85
2022/08/29 02:40:28;;;;;;;6.28;3.70;;;15.60;99.90;;;;;;6281325;22;20019;-85
2022/08/29 02:42:54;;;;;;;10.38;4.05;;;15.60;99.90;;;;;;6257079;22;20098;-85
2022/08/29 02:45:22;;;;;;;11.50;3.92;;;15.60;99.90;;;;;;6231496;22;20015;-85
2022/08/29 02:47:48;;;;;;;7.43;3.85;;;15.60;99.90;;;;;;6256975;22;20015;-85
2022/08/29 02:50:14;;;;;;;8.20;4.05;;;15.60;99.90;;;;;;6282375;22;20007;-85
2022/08/29 02:52:42;;;;;;;8.27;3.65;;;15.60;99.90;;;;;;6282000;22;20046;-85
2022/08/29 02:55:12;;;;;;;8.40;4.10;;;15.60;99.90;;;;;;6281902;22;20090;-86
2022/08/29 02:57:38;;;;;;;9.88;4.20;;;15.60;99.90;;;;;;6281265;22;20017;-85
2022/08/29 03:00:07;;;;;;;6.78;3.67;;;15.60;99.90;;;;;;6255841;22;20019;-85
2022/08/29 03:02:33;;;;;;;10.60;4.63;;;15.60;99.90;;;;;;6232837;22;20148;-85
2022/08/29 03:04:59;;;;;;;8.32;4.07;;;15.60;99.90;;;;;;6232666;22;20023;-85
2022/08/29 03:07:25;;;;;;;10.52;4.43;;;15.60;99.90;;;;;;6230976;22;20047;-85
2022/08/29 03:09:51;;;;;;;9.38;4.13;;;15.60;99.90;;;;;;6256555;22;20011;-85
2022/08/29 03:12:17;;;;;;;10.55;4.32;;;15.60;99.90;;;;;;6281973;22;20037;-86
2022/08/29 03:14:42;;;;;;;7.10;3.83;;;15.60;99.90;;;;;;6255355;22;20030;-85
2022/08/29 03:17:08;;;;;;;7.93;3.92;;;15.60;99.90;;;;;;6230845;22;20015;-86
2022/08/29 03:19:34;;;;;;;8.30;3.92;;;15.60;99.90;;;;;;6229861;22;20455;-86
2022/08/29 03:22:00;;;;;;;8.38;3.60;;;15.60;99.90;;;;;;6205997;22;20471;-85
2022/08/29 03:24:26;;;;;;;6.47;3.65;;;15.60;99.90;;;;;;6255914;22;20015;-86
2022/08/29 03:26:52;;;;;;;7.30;3.70;;;15.60;99.90;;;;;;6256123;22;20011;-85
2022/08/29 03:29:17;;;;;;;8.10;3.88;;;15.60;99.90;;;;;;6255053;22;20008;-85
2022/08/29 03:31:43;;;;;;;11.23;4.22;;;15.60;99.90;;;;;;6205006;22;20011;-86
2022/08/29 03:34:08;;;;;;;7.38;3.63;;;15.60;99.90;;;;;;6228860;22;20015;-85
2022/08/29 03:36:34;;;;;;;8.63;4.05;;;15.60;99.90;;;;;;6230223;22;20018;-86
2022/08/29 03:39:00;;;;;;;7.32;3.67;;;15.60;99.90;;;;;;6230656;22;20019;-86
2022/08/29 03:41:28;;;;;;;9.13;3.53;;;15.60;99.90;;;;;;6281616;22;20015;-86
2022/08/29 03:43:55;;;;;;;7.28;3.40;;;15.50;99.90;;;;;;6231056;22;20015;-85
2022/08/29 03:46:24;;;;;;;10.43;4.30;;;15.50;99.90;;;;;;6255789;22;20094;-86
2022/08/29 03:48:49;;;;;;;7.55;4.30;;;15.50;99.90;;;;;;6231937;22;20019;-85
2022/08/29 03:51:16;;;;;;;9.77;4.57;;;15.50;99.90;;;;;;6281957;22;20336;-85
2022/08/29 03:53:42;;;;;;;6.30;3.70;;;15.50;99.90;;;;;;6281338;22;20039;-86
2022/08/29 03:56:09;;;;;;;10.05;4.00;;;15.50;99.90;;;;;;6255614;22;20012;-85
2022/08/29 03:58:36;;;;;;;9.55;4.88;;;15.40;99.90;;;;;;6280876;22;20003;-86
2022/08/29 04:01:02;;;;;;;8.45;4.20;;;15.40;99.90;;;;;;6256335;22;20037;-86
2022/08/29 04:03:29;;;;;;;7.00;4.05;;;15.40;99.90;;;;;;6256576;22;20007;-85
2022/08/29 04:05:54;;;;;;;11.20;4.03;;;15.40;99.90;;;;;;6230959;22;20065;-86
2022/08/29 04:08:20;;;;;;;11.80;4.47;;;15.30;99.90;;;;;;6230471;22;20333;-85
2022/08/29 04:10:46;;;;;;;8.40;4.15;;;15.30;99.90;;;;;;6255622;22;20372;-86
2022/08/29 04:13:12;;;;;;;9.25;4.25;;;15.30;99.90;;;;;;6256280;22;20031;-85
2022/08/29 04:15:40;;;;;;;8.02;3.80;;;15.20;99.90;;;;;;6255801;22;20018;-86
2022/08/29 04:18:07;;;;;;;6.93;3.67;;;15.20;99.90;;;;;;6255447;22;20011;-86
2022/08/29 04:20:37;;;;;;;9.00;3.95;;;15.20;99.90;;;;;;6229471;22;20022;-85
2022/08/29 04:23:04;;;;;;;8.65;4.47;;;15.20;99.90;;;;;;6255859;22;20014;-85
2022/08/29 04:25:35;;;;;;;6.32;4.20;;;15.20;99.90;;;;;;6255560;22;20333;-86
2022/08/29 04:28:03;;;;;;;10.45;4.18;;;15.20;99.90;;;;;;6255961;22;20453;-86
2022/08/29 04:30:29;;;;;;;9.90;4.32;;;15.20;99.90;;;;;;6280838;22;20011;-86
2022/08/29 04:32:56;;;;;;;10.35;4.07;;;15.20;99.90;;;;;;6204736;22;20011;-86
2022/08/29 04:35:21;;;;;;;7.47;3.75;;;15.20;99.90;;;;;;6254957;22;20421;-86
2022/08/29 04:37:48;;;;;;;8.82;4.28;;;15.20;99.90;;;;;;6280152;22;20015;-86
2022/08/29 04:40:17;;;;;;;9.45;3.85;;;15.10;99.90;;;;;;6280868;22;20023;-86
2022/08/29 04:42:43;;;;;;;9.18;4.20;;;15.10;99.90;;;;;;6281573;22;20086;-85
2022/08/29 04:45:12;;;;;;;11.48;4.65;;;15.10;99.90;;;;;;6230204;22;20019;-85
2022/08/29 04:47:38;;;;;;;9.80;4.10;;;15.10;99.90;;;;;;6254841;22;20471;-86
2022/08/29 04:50:06;;;;;;;8.65;3.97;;;15.10;99.90;;;;;;6256404;22;20372;-86
2022/08/29 04:52:32;;;;;;;8.30;4.03;;;15.10;99.90;;;;;;6257522;22;20042;-85
2022/08/29 04:54:58;;;;;;;10.68;4.45;;;15.10;99.90;;;;;;6259848;22;20634;-86
2022/08/29 04:57:24;;;;;;;13.73;4.32;;;15.10;99.90;;;;;;6259375;22;20011;-85
2022/08/29 04:59:54;;;;;;;12.02;4.38;;;15.10;99.90;;;;;;6260033;22;20015;-85
2022/08/29 05:02:21;;;;;;;9.82;4.18;;;15.20;99.90;;;;;;6285265;22;20094;-86
2022/08/29 05:04:51;;;;;;;8.43;4.35;;;15.20;99.90;;;;;;6285011;22;20015;-85
2022/08/29 05:07:19;;;;;;;6.93;4.13;;;15.10;99.90;;;;;;6258579;22;20074;-86
2022/08/29 05:09:54;;;;;;;8.15;4.15;;;15.10;99.90;;;;;;6258919;22;20011;-86
2022/08/29 05:12:20;;;;;;;9.00;4.30;;;15.20;99.90;;;;;;6257731;22;20015;-86
2022/08/29 05:14:46;;;;;;;9.15;4.10;;;15.20;99.90;;;;;;6233009;22;20022;-86
2022/08/29 05:17:13;;;;;;;8.38;4.38;;;15.20;99.90;;;;;;6257226;22;20473;-85
2022/08/29 05:19:42;;;;;;;9.32;4.13;;;15.20;99.90;;;;;;6233052;22;20011;-85
2022/08/29 05:22:21;;;;;;;7.50;4.03;;;15.20;99.90;;;;;;6257903;22;20440;-86
2022/08/29 05:24:47;;;;;;;7.97;3.63;;;15.20;99.90;;;;;;6260433;22;20019;-86
2022/08/29 05:27:19;;;;;;;6.97;3.65;;;15.20;99.90;;;;;;6257434;22;20366;-86
2022/08/29 05:29:46;;;;;;;11.27;3.95;;;15.20;99.90;;;;;;6257558;22;20007;-86
2022/08/29 05:32:13;;;;;;;11.18;3.90;;;15.30;99.90;;;;;;6232041;22;20011;-85
2022/08/29 05:34:40;;;;;;;9.70;3.88;;;15.30;99.90;;;;;;6282380;22;20011;-85
2022/08/29 05:37:12;;;;;;;9.43;3.90;;;15.30;99.90;;;;;;6257333;22;20107;-85
2022/08/29 05:39:40;;;;;;;10.20;4.40;;;15.40;99.90;;;;;;6257826;22;20504;-85
2022/08/29 05:42:07;;;;;;;7.10;3.67;;;15.50;99.90;;;;;;6284318;22;20015;-86
2022/08/29 05:44:34;;;;;;;9.95;3.80;;;15.50;99.90;;;;;;6233435;22;20073;-85
2022/08/29 05:47:02;;;;;;;11.48;3.63;;;15.50;99.90;;;;;;6258414;22;20515;-86
2022/08/29 05:49:27;;;;;;;8.40;3.67;;;15.60;99.90;;;;;;6233001;22;20011;-86
2022/08/29 05:51:55;;;;;;;8.55;3.88;;;15.60;99.90;;;;;;6207753;22;20014;-85
2022/08/29 05:54:22;;;;;;;8.48;3.58;;;15.60;99.90;;;;;;6283532;22;20056;-85
2022/08/29 05:56:48;;;;;;;7.40;3.63;;;15.60;99.90;;;;;;6258429;22;20015;-86
2022/08/29 05:59:16;;;;;;;12.38;3.47;;;15.70;99.90;;;;;;6213932;22;20034;-85
2022/08/29 06:01:42;;;;;;;9.75;3.55;;;15.70;99.90;;;;;;6284349;22;20015;-85
2022/08/29 06:04:08;;;;;;;11.35;3.75;;;15.70;99.90;;;;;;6256593;22;20094;-85
2022/08/29 06:06:34;;;;;;;14.75;3.80;;;15.70;99.90;;;;;;6231373;22;20046;-86
2022/08/29 06:09:00;;;;;;;9.85;3.75;;;15.80;99.90;;;;;;6257482;22;20014;-85
2022/08/29 06:11:29;;;;;;;10.48;3.92;;;15.80;99.90;;;;;;6257638;22;20394;-86
2022/08/29 06:13:55;;;;;;;7.93;3.60;;;15.90;99.90;;;;;;6282671;22;20011;-87
2022/08/29 06:16:23;;;;;;;11.15;3.53;;;15.90;99.90;;;;;;6256399;22;20014;-86
2022/08/29 06:18:49;;;;;;;14.93;3.75;;;15.90;99.90;;;;;;6282227;22;20065;-86
2022/08/29 06:21:15;;;;;;;9.50;3.47;;;15.90;99.90;;;;;;6257316;22;20015;-86
2022/08/29 06:23:43;;;;;;;11.10;3.80;;;15.90;99.90;;;;;;6258050;22;20018;-87
2022/08/29 06:26:10;;;;;;;7.32;3.50;;;16.00;99.90;;;;;;6283450;22;20108;-87
2022/08/29 06:28:37;;;;;;;11.27;3.50;;;16.00;99.90;;;;;;6283083;22;20535;-87
2022/08/29 06:31:10;;;;;;;12.77;3.78;;;16.00;99.90;;;;;;6257826;22;20014;-86
2022/08/29 06:33:36;;;;;;;12.00;4.07;;;16.10;99.90;;;;;;6257510;22;20333;-85
2022/08/29 06:36:04;;;;;;;6.53;3.33;;;16.20;99.90;;;;;;6257845;22;20072;-87
2022/08/29 06:38:30;;;;;;;11.32;3.53;;;16.20;99.90;;;;;;6257184;22;20075;-86
2022/08/29 06:40:56;;;;;;;19.15;3.60;;;16.30;99.90;;;;;;6231554;22;20015;-86
2022/08/29 06:43:22;;;;;;;17.35;3.63;;;16.30;99.90;;;;;;6231552;22;20047;-86
2022/08/29 06:45:48;;;;;;;11.43;3.28;;;16.30;99.90;;;;;;6236121;22;20019;-86
2022/08/29 06:48:13;;;;;;;8.40;3.00;;;16.40;99.90;;;;;;6234355;22;20019;-87
2022/08/29 06:50:40;;;;;;;11.20;3.50;;;16.40;99.90;;;;;;6283065;22;20112;-89
2022/08/29 06:53:06;;;;;;;9.95;3.92;;;16.40;99.90;;;;;;6282990;22;20022;-87
2022/08/29 06:55:36;;;;;;;14.60;3.30;;;16.40;99.90;;;;;;6283047;22;20090;-87
2022/08/29 06:58:03;;;;;;;13.25;3.63;;;16.40;99.90;;;;;;6281642;22;20019;-87
2022/08/29 07:00:29;;;;;;;10.40;3.50;;;16.50;99.90;;;;;;6256996;22;20042;-85
2022/08/29 07:02:55;;;;;;;9.38;3.55;;;16.40;99.90;;;;;;6255804;22;20371;-85
2022/08/29 07:05:22;;;;;;;9.23;3.45;;;16.50;99.90;;;;;;6256690;22;20046;-87
2022/08/29 07:07:49;;;;;;;11.10;3.60;;;16.60;99.90;;;;;;6231780;22;20021;-86
2022/08/29 07:10:16;;;;;;;5.43;2.75;;;16.60;99.90;;;;;;6259451;22;20023;-85
2022/08/29 07:12:42;;;;;;;8.75;3.15;;;16.60;99.90;;;;;;6258521;22;20010;-85
2022/08/29 07:15:08;;;;;;;8.02;3.47;;;16.70;99.90;;;;;;6257933;22;20012;-85
2022/08/29 07:17:34;;;;;;;12.23;3.58;;;16.80;99.90;;;;;;6282950;22;20015;-85
2022/08/29 07:19:59;;;;;;;9.02;3.25;;;16.80;99.90;;;;;;6209658;22;20022;-85
2022/08/29 07:22:25;;;;;;;12.10;3.80;;;17.00;99.90;;;;;;6261912;22;20403;-86
2022/08/29 07:24:53;;;;;;;9.68;3.35;;;17.10;99.90;;;;;;6284635;22;20318;-84
2022/08/29 07:27:19;;;;;;;10.70;3.33;;;17.30;99.90;;;;;;6266661;22;20019;-86
2022/08/29 07:29:45;;;;;;;8.25;3.25;;;17.50;99.90;;;;;;6307926;22;20003;-85
2022/08/29 07:32:10;;;;;;;6.57;3.17;;;17.60;99.90;;;;;;6308752;22;20014;-85
2022/08/29 07:34:36;;;;;;;8.68;2.92;;;17.70;99.90;;;;;;6276230;22;20030;-86
2022/08/29 07:37:03;;;;;;;7.40;3.40;;;17.90;99.90;;;;;;6256531;22;20007;-85
2022/08/29 07:39:30;;;;;;;7.68;2.63;;;18.10;99.90;;;;;;6282843;22;20800;-86
2022/08/29 07:41:57;;;;;;;6.43;2.67;;;18.30;99.90;;;;;;6284670;22;20018;-87
2022/08/29 07:44:24;;;;;;;8.98;2.60;;;18.60;99.90;;;;;;6283233;22;20307;-85
2022/08/29 07:46:55;;;;;;;6.25;2.58;;;18.70;99.90;;;;;;6257207;22;20011;-88
2022/08/29 07:49:22;;;;;;;6.68;2.42;;;18.70;99.90;;;;;;6257497;22;20337;-86
2022/08/29 07:51:47;;;;;;;8.20;2.70;;;18.70;99.90;;;;;;6257965;22;20065;-86
2022/08/29 07:54:17;;;;;;;11.95;3.08;;;18.70;99.90;;;;;;6255806;22;20449;-87
2022/08/29 07:56:45;;;;;;;8.02;2.60;;;18.70;99.90;;;;;;6231515;22;20011;-87
2022/08/29 07:59:11;;;;;;;9.18;3.03;;;18.60;99.90;;;;;;6281212;22;20047;-86
2022/08/29 08:01:38;;;;;;;10.82;2.88;;;18.60;99.90;;;;;;6206191;22;20026;-87
2022/08/29 08:04:05;;;;;;;9.57;2.70;;;18.50;99.90;;;;;;6231149;22;20060;-86
2022/08/29 08:06:33;;;;;;;5.88;2.50;;;18.50;99.90;;;;;;6231262;22;20011;-86
2022/08/29 08:08:59;;;;;;;6.28;2.60;;;18.50;99.90;;;;;;6256854;22;20077;-87
2022/08/29 08:11:25;;;;;;;7.78;2.65;;;18.60;99.90;;;;;;6256607;22;20011;-86
2022/08/29 08:13:52;;;;;;;6.88;2.13;;;18.70;99.90;;;;;;6230894;22;20007;-86
2022/08/29 08:16:20;;;;;;;8.90;2.65;;;18.70;99.90;;;;;;6255616;22;20008;-86
2022/08/29 08:18:47;;;;;;;6.40;2.10;;;18.90;99.90;;;;;;6255792;22;20018;-85
2022/08/29 08:21:13;;;;;;;6.32;2.35;;;18.90;99.90;;;;;;6230388;22;20314;-86
2022/08/29 08:23:39;;;;;;;6.50;2.20;;;18.90;99.90;;;;;;6255601;22;20035;-86
2022/08/29 08:26:07;;;;;;;6.30;1.90;;;18.90;99.90;;;;;;6280708;22;20014;-88
2022/08/29 08:28:33;;;;;;;6.20;2.03;;;18.90;99.90;;;;;;6282825;22;20064;-86
2022/08/29 08:30:59;;;;;;;8.13;2.28;;;18.80;99.90;;;;;;6232348;22;20018;-86
2022/08/29 08:33:25;;;;;;;5.53;2.17;;;18.70;99.90;;;;;;6283122;22;20015;-86
2022/08/29 08:35:51;;;;;;;7.10;2.60;;;18.80;99.90;;;;;;6282978;22;20011;-85
2022/08/29 08:38:18;;;;;;;8.18;2.30;;;18.90;99.90;;;;;;6282809;22;20030;-86
2022/08/29 08:41:04;;;;;;;6.90;2.40;;;18.90;99.90;;;;;;6287766;22;20053;-84
2022/08/29 08:43:38;;;;;;;;;;;19.00;99.90;;;;;;6263113;22;20015;-85
2022/08/29 08:46:03;;;;;;;6.97;1.90;;;19.10;99.90;;;;;;6286990;22;19911;-87
2022/08/29 08:48:35;;;;;;;7.65;1.95;;;19.10;99.90;;;;;;6232531;22;20468;-85
2022/08/29 08:51:26;;;;;;;9.23;2.33;;;19.20;99.90;;;;;;6283218;22;20008;-85
2022/08/29 08:53:55;;;;;;;6.18;2.10;;;19.40;99.90;;;;;;6283113;22;20076;-85
2022/08/29 08:56:30;;;;;;;7.50;2.45;;;19.40;99.90;;;;;;6282230;22;20008;-86
2022/08/29 08:59:23;;;;;;;6.43;2.60;;;19.40;99.90;;;;;;6281667;22;20019;-85
2022/08/29 09:02:14;;;;;;;6.82;2.10;;;19.40;99.90;;;;;;6256300;22;20007;-86
2022/08/29 09:05:01;;;;;;;7.18;2.15;;;19.50;99.90;;;;;;6282662;22;20014;-85
2022/08/29 09:07:41;;;;;;;6.30;2.25;;;19.50;99.90;;;;;;6190342;23;20060;-85
2022/08/29 09:10:19;;;;;;;6.55;2.20;;;19.60;99.90;;;;;;6166241;23;20017;-85
2022/08/29 09:12:50;;;;;;;6.95;2.45;;;19.70;99.90;;;;;;6165813;23;20470;-86
2022/08/29 09:15:19;;;;;;;5.20;1.75;;;19.70;99.90;;;;;;6189958;23;20354;-85
2022/08/29 09:17:59;;;;;;;7.30;2.75;;;19.80;99.90;;;;;;6189605;23;20016;-87
2022/08/29 09:20:32;;;;;;;4.40;2.05;;;19.80;99.90;;;;;;6164519;23;20017;-86
2022/08/29 09:23:01;;;;;;;7.03;2.17;;;19.70;99.90;;;;;;6165809;23;20048;-85
2022/08/29 09:25:29;;;;;;;5.15;1.80;;;19.70;99.90;;;;;;6166341;23;20454;-86
2022/08/29 09:27:57;;;;;;;8.35;2.58;;;19.80;99.90;;;;;;6166187;23;20016;-87
2022/08/29 09:30:26;;;;;;;7.15;2.28;;;19.90;99.90;;;;;;6166719;23;20382;-88
2022/08/29 09:32:57;;;;;;;8.30;2.15;;;19.90;99.90;;;;;;6165334;23;20136;-86
2022/08/29 09:35:27;;;;;;;8.57;2.15;;;20.00;99.90;;;;;;6191533;23;20012;-86
2022/08/29 09:38:01;;;;;;;7.82;2.10;;;20.20;99.90;;;;;;6191725;22;20461;-84
2022/08/29 09:40:49;;;;;;;7.45;2.40;;;20.30;99.90;;;;;;6258389;22;20030;-86
2022/08/29 09:43:38;;;;;;;8.50;2.70;;;20.30;99.90;;;;;;6257253;22;20015;-86
2022/08/29 09:46:12;;;;;;;5.75;2.30;;;20.40;99.90;;;;;;6256531;22;20100;-85
2022/08/29 09:48:47;;;;;;;7.07;2.45;;;20.40;99.90;;;;;;6256746;22;20011;-85
2022/08/29 09:51:28;;;;;;;6.38;2.13;;;20.40;99.90;;;;;;6258069;22;20015;-87
2022/08/29 09:54:15;;;;;;;9.52;2.40;;;20.50;99.90;;;;;;6257696;22;20058;-85
2022/08/29 09:56:49;;;;;;;9.80;2.25;;;20.50;99.90;;;;;;6258311;22;20066;-85
2022/08/29 09:59:34;;;;;;;11.63;2.53;;;20.60;99.90;;;;;;6256678;22;20015;-86
2022/08/29 10:02:23;;;;;;;7.13;2.20;;;20.70;99.90;;;;;;6282665;22;20042;-85
2022/08/29 10:04:58;;;;;;;7.10;2.17;;;20.70;99.90;;;;;;6255167;22;20073;-85
2022/08/29 10:07:26;;;;;;;7.90;2.88;;;20.70;99.90;;;;;;6281567;22;20007;-85
2022/08/29 10:10:04;;;;;;;9.60;2.33;;;20.80;99.90;;;;;;6256670;22;20011;-85
2022/08/29 10:12:50;;;;;;;8.60;2.08;;;20.80;99.90;;;;;;6282407;22;20007;-85
2022/08/29 10:15:53;;;;;;;6.80;2.00;;;20.80;99.90;;;;;;6283876;22;20092;-85
2022/08/29 10:18:41;;;;;;;7.10;2.63;;;20.80;99.90;;;;;;6282853;22;20042;-85
2022/08/29 10:21:13;;;;;;;5.90;2.22;;;20.80;99.90;;;;;;6282745;22;20453;-85
2022/08/29 10:24:10;;;;;;;6.72;2.22;;;20.90;99.90;;;;;;6256957;22;20019;-85
2022/08/29 10:26:47;;;;;;;4.78;2.15;;;21.00;99.90;;;;;;6255469;22;20015;-85
2022/08/29 10:29:35;;;;;;;8.48;2.63;;;21.00;99.90;;;;;;6256667;22;20090;-85
2022/08/29 10:32:28;;;;;;;6.65;2.17;;;21.00;99.90;;;;;;6281218;22;20051;-84
2022/08/29 10:35:15;;;;;;;12.48;2.35;;;21.00;99.90;;;;;;6283018;22;20018;-85
2022/08/29 10:38:05;;;;;;;4.63;1.92;;;21.10;99.90;;;;;;6255598;22;20015;-85
2022/08/29 10:41:09;;;;;;;6.55;2.10;;;21.20;99.90;;;;;;6257979;22;20019;-86
2022/08/29 10:43:46;;;;;;;7.28;2.42;;;21.30;99.90;;;;;;6226494;22;20022;-86
2022/08/29 10:46:37;;;;;;;6.88;2.35;;;21.30;99.90;;;;;;6282192;22;20062;-85
2022/08/29 10:49:24;;;;;;;5.75;2.13;;;21.40;99.90;;;;;;6281681;22;20404;-85
2022/08/29 10:51:59;;;;;;;6.07;2.10;;;21.50;99.90;;;;;;6282438;22;20011;-85
2022/08/29 10:54:44;;;;;;;7.82;3.08;;;21.70;99.90;;;;;;6282543;22;20345;-85
2022/08/29 10:57:22;;;;;;;7.88;2.30;;;21.70;99.90;;;;;;6282384;22;20007;-86
2022/08/29 10:59:55;;;;;;;6.15;2.35;;;21.60;99.90;;;;;;6283059;22;20007;-85
2022/08/29 11:02:27;;;;;;;7.10;2.33;;;21.50;99.90;;;;;;6282774;22;20399;-85
2022/08/29 11:04:57;;;;;;;6.38;2.25;;;21.40;99.90;;;;;;6263301;22;20092;-84
2022/08/29 11:07:26;;;;;;;4.18;2.00;;;21.30;99.90;;;;;;6257657;22;20011;-84
2022/08/29 11:09:58;;;;;;;6.50;2.30;;;21.40;99.90;;;;;;6256919;22;20018;-86
2022/08/29 11:12:54;;;;;;;5.93;2.08;;;21.40;99.90;;;;;;6256204;22;20086;-85
2022/08/29 11:15:30;;;;;;;5.10;2.22;;;21.50;99.90;;;;;;6282429;22;20011;-85
2022/08/29 11:18:19;;;;;;;5.55;2.15;;;21.50;99.90;;;;;;6257291;22;20086;-85
2022/08/29 11:20:50;;;;;;;5.55;2.40;;;21.60;99.90;;;;;;6236785;22;20318;-85
2022/08/29 11:23:26;;;;;;;7.57;2.55;;;21.70;99.90;;;;;;6281419;22;20022;-85
2022/08/29 11:25:52;;;;;;;6.35;2.88;;;21.80;99.90;;;;;;6256419;22;20011;-84
2022/08/29 11:28:36;;;;;;;7.63;2.40;;;21.90;99.90;;;;;;6256688;22;20828;-85
2022/08/29 11:31:10;;;;;;;8.43;2.58;;;21.90;99.90;;;;;;6281105;22;20014;-85
2022/08/29 11:33:51;;;;;;;7.70;2.40;;;21.90;99.90;;;;;;6281541;22;20111;-85
2022/08/29 11:36:26;;;;;;;4.95;1.98;;;21.90;99.90;;;;;;6254233;22;20433;-85
2022/08/29 11:39:22;;;;;;;8.05;2.55;;;21.90;99.90;;;;;;6280437;22;20015;-86
2022/08/29 11:41:53;;;;;;;6.18;2.42;;;21.90;99.90;;;;;;6255609;22;20042;-85
2022/08/29 11:44:32;;;;;;;6.03;2.20;;;21.90;99.90;;;;;;6255854;22;20440;-86
2022/08/29 11:46:59;;;;;;;8.85;2.63;;;21.90;99.90;;;;;;6255645;22;20505;-86
2022/08/29 11:49:35;;;;;;;6.93;2.33;;;21.90;99.90;;;;;;6281270;22;20011;-86
2022/08/29 11:52:07;;;;;;;7.70;2.15;;;22.00;99.90;;;;;;6281045;22;20441;-86
2022/08/29 11:54:36;;;;;;;8.90;2.60;;;22.20;99.90;;;;;;6255813;22;20011;-85
2022/08/29 11:57:04;;;;;;;6.47;2.20;;;22.30;99.90;;;;;;6281296;22;20016;-86
2022/08/29 11:59:55;;;;;;;6.20;2.20;;;22.40;99.90;;;;;;6255512;22;20015;-88
2022/08/29 12:02:27;;;;;;;7.88;2.17;;;22.50;99.90;;;;;;6281994;22;20015;-87
2022/08/29 12:05:06;;;;;;;5.00;2.33;;;22.60;99.90;;;;;;6281735;22;20455;-85
2022/08/29 12:07:37;;;;;;;10.05;2.60;;;22.70;99.90;;;;;;6282721;22;20016;-85
2022/08/29 12:10:10;;;;;;;8.68;2.40;;;22.70;99.90;;;;;;6282385;22;20433;-86
2022/08/29 12:13:03;;;;;;;8.93;2.80;;;22.80;99.90;;;;;;6281723;22;20011;-86
2022/08/29 12:15:29;;;;;;;6.80;2.28;;;22.80;99.90;;;;;;6256811;22;20018;-85
2022/08/29 12:18:01;;;;;;;8.52;2.30;;;22.80;99.90;;;;;;6256228;22;20015;-86
2022/08/29 12:20:29;;;;;;;6.35;2.55;;;22.90;99.90;;;;;;6255940;22;20057;-86
2022/08/29 12:22:55;;;;;;;9.43;2.78;;;22.90;99.90;;;;;;6256230;22;20337;-86
2022/08/29 12:25:29;;;;;;;6.55;2.70;;;22.90;99.90;;;;;;6281896;22;20022;-86
2022/08/29 12:28:13;;;;;;;7.40;2.50;;;22.90;99.90;;;;;;6257121;22;20305;-85
2022/08/29 12:30:42;;;;;;;5.75;2.28;;;22.80;99.80;;;;;;6255869;22;20380;-85
2022/08/29 12:33:25;;;;;;;6.65;2.50;;;22.80;99.90;;;;;;6255595;22;20364;-86
2022/08/29 12:36:13;;;;;;;7.05;2.80;;;22.80;99.90;;;;;;6282410;22;20086;-86
2022/08/29 12:39:05;;;;;;;4.13;2.20;;;22.80;99.90;;;;;;6256428;22;20754;-86
2022/08/29 12:41:58;;;;;;;5.32;2.55;;;22.70;99.40;;;;;;6186178;22;20109;-86
2022/08/29 12:44:36;;;;;;;7.15;2.15;;;22.70;99.20;;;;;;6256465;22;20015;-86
2022/08/29 12:47:12;;;;;;;6.07;2.10;;;22.70;99.20;;;;;;6256373;22;20011;-85
2022/08/29 12:49:52;;;;;;;;;;;22.70;99.60;;;;;;6283043;22;20007;-86
2022/08/29 12:52:33;;;;;;;6.80;2.58;;;22.70;99.00;;;;;;6282703;22;20368;-86
2022/08/29 12:55:23;;;;;;;4.70;2.38;;;22.70;99.50;;;;;;6256668;22;20094;-86
2022/08/29 12:57:50;;;;;;;10.85;2.92;;;22.60;99.20;;;;;;6281576;22;20053;-85
2022/08/29 13:00:24;;;;;;;6.25;2.50;;;22.60;99.90;;;;;;6301229;22;20003;-85
2022/08/29 13:03:04;;;;;;;5.53;2.47;;;22.60;99.90;;;;;;6282507;22;20007;-85
2022/08/29 13:05:31;;;;;;;8.07;2.58;;;22.60;99.90;;;;;;6280462;22;20003;-85
2022/08/29 13:08:00;;;;;;;8.90;2.78;;;22.50;99.90;;;;;;6284993;22;20015;-85